Airfield :
LOGIN :

Register | Disclaimer

   EN    FR    IT 

 










Legend :    VFR   Marginal VFR   IFR   Intensive IFR   Very Intensive IFR
Visi :
Ceiling :
>= 8 km
>= 3000ft
5 to 8 km
1000 to 3000 ft
1500m to 5 km
500 to 1000 ft
800 to 1500m
200 to 500 ft
< 800m
< 200 ft
Symbols :   Thunderstorms  Fog  Heavy snow  Heavy precipitations  Wind > 20 kt
SIGMETs :     Misc.  Thunderstorms  Icing  Turbulence  Mountain Waves  Volcanic Ashes







- Airport Elevation : 1989 ft
- IATA code : KLV


LKKV - Karlovy Vary

CURRENT METAR :
  • 170930Z VRB02KT CAVOK 17/11 Q1026

EXPIRED METARs :
  • 170900Z 29003KT 250V340 CAVOK 16/11 Q1026
  • 170830Z VRB02KT CAVOK 15/12 Q1026
  • 170800Z VRB01KT CAVOK 13/13 Q1026
  • 170730Z VRB02KT CAVOK 12/12 Q1026
  • 170700Z VRB02KT 9999 0800SE R29/1100U BCFG NSC 09/09 Q1026
  • 170642Z 10003KT 2000 0800NW R29/P2000N BR BCFG NSC 09/09 Q1026 RMK REG QNH 1022

TAF TAF LKKV
Valid from the 17 at 06:00 until the 18 at 12:00 UTC


170500Z 1706/1812 VRB02KT 0400 FG BKN003
TEMPO 1706/1708 0900 FG SCT003
BECMG 1709/1711 CAVOK
BECMG 1721/1800 1300 BR SCT003
TEMPO 1800/1807 0300 FG BKN001
BECMG 1807/1809 2500 BR NSC
BECMG 1809/1811 CAVOK
No reported NOTAMs for that airfield.



MET'MAP, your aeronautical weather chart ! - Copyright ORBIFLY December 2007 - Disclaimer

ORBIFLY MET'MAP TEAM :

Programming & Development : Alexandra Zaïnal
Concept & Development : Baudouin d'Aumeries
Co-Development & Prog : Marc-Olivier Méhu
Technical & hardware support : Manuel Goepfert

Contact : metmap@orbifly.com




SOURCES & CREDITS :

   NOAA